Cochiti Lake, New Mexico
Current Conditions -  °F | °C
As of 5:53 PM on Friday 24 Oct 2014 (Local Time) from KSAF Reporting Station
Clear Clear  
Wind Chill: 71°   Ceiling: Unl
Heat Index: 71°   Visibility: 10mi
Dew Point: 27°   Wind: 7mph
Humidity: 19%   Direction: 230°SW
Pressure: 30.27"   Gusts: NA
Location:  35.65°N, 106.34°W
Report Text: KSAF 242353Z AUTO 23006KT 10SM CLR 22/M03 A3027 RMK AO2 SLP178 T02171028 10250 20194 57002
Loading
Personal Weather Stations






























Interactive Weather Map
Tropical Storm Tracking
New forecast layout! Learn more

10-Day Weather Forecast

Advertisements
Track Severe Weather on mobile